createdAt,value
2023-04-04T00:04:20.912Z,2.33
2023-04-04T00:09:43.092Z,2.50
2023-04-04T00:15:06.478Z,1.70
2023-04-04T00:20:29.213Z,1.63
2023-04-04T00:25:52.663Z,1.60
2023-04-04T00:31:15.044Z,1.80
2023-04-04T00:36:38.256Z,1.53
2023-04-04T00:42:00.730Z,2.10
2023-04-04T00:47:24.747Z,1.90
2023-04-04T00:52:47.272Z,1.67
2023-04-04T00:58:10.926Z,1.30
2023-04-04T01:03:33.780Z,2.70
2023-04-04T01:08:56.518Z,2.27
2023-04-04T01:14:19.318Z,2.10
2023-04-04T01:20:11.228Z,2.47
2023-04-04T01:25:39.031Z,2.53
2023-04-04T01:31:11.401Z,3.33
2023-04-04T01:36:54.588Z,3.83
2023-04-04T01:42:20.067Z,2.90
2023-04-04T01:47:44.109Z,2.47
2023-04-04T01:53:12.238Z,3.00
2023-04-04T01:58:35.032Z,2.93
2023-04-04T02:03:57.667Z,2.93
2023-04-04T02:09:20.017Z,3.20
2023-04-04T02:14:43.234Z,3.00
2023-04-04T02:20:07.430Z,2.77
2023-04-04T02:25:29.966Z,2.23
2023-04-04T02:30:52.345Z,2.40
2023-04-04T02:36:14.712Z,1.90
2023-04-04T02:41:38.009Z,2.00
2023-04-04T02:47:00.255Z,2.07
2023-04-04T02:52:25.851Z,2.23
2023-04-04T02:57:52.612Z,1.57
2023-04-04T03:03:15.172Z,2.20
2023-04-04T03:08:40.964Z,1.47
2023-04-04T03:14:03.395Z,1.80
2023-04-04T03:19:32.244Z,1.93
2023-04-04T03:24:54.944Z,1.90
2023-04-04T03:30:17.415Z,1.63
2023-04-04T03:35:40.756Z,2.30
2023-04-04T03:41:04.328Z,2.87
2023-04-04T03:46:27.353Z,2.50
2023-04-04T03:51:50.170Z,2.67
2023-04-04T03:57:12.817Z,2.93
2023-04-04T04:02:37.182Z,2.87
2023-04-04T04:07:59.728Z,2.47
2023-04-04T04:13:22.334Z,2.60
2023-04-04T04:18:46.162Z,2.73
2023-04-04T04:24:14.541Z,3.40
2023-04-04T04:29:37.624Z,3.93
2023-04-04T04:35:00.702Z,4.47
2023-04-04T04:40:27.175Z,5.03
2023-04-04T04:45:55.791Z,4.40
2023-04-04T04:51:18.445Z,4.37
2023-04-04T04:56:47.618Z,4.47
2023-04-04T05:02:10.382Z,3.27
2023-04-04T05:07:38.077Z,3.40
2023-04-04T05:13:00.578Z,3.27
2023-04-04T05:18:28.538Z,2.90
2023-04-04T05:23:52.420Z,3.57
2023-04-04T05:29:17.241Z,3.17
2023-04-04T05:34:43.213Z,2.00
2023-04-04T05:40:11.092Z,2.67
2023-04-04T05:45:33.596Z,3.23
2023-04-04T05:50:56.682Z,2.77
2023-04-04T05:56:31.144Z,3.17
2023-04-04T06:01:55.302Z,2.70
2023-04-04T06:07:18.282Z,4.07
2023-04-04T06:12:40.662Z,3.00
2023-04-04T06:18:06.098Z,2.10
2023-04-04T06:23:28.694Z,2.20
2023-04-04T06:28:51.493Z,2.33
2023-04-04T06:34:25.559Z,2.13
2023-04-04T06:39:53.870Z,2.67
2023-04-04T06:45:20.260Z,3.30
2023-04-04T06:50:42.818Z,2.50
2023-04-04T06:56:09.602Z,2.43
2023-04-04T07:01:34.255Z,2.40
2023-04-04T07:06:57.205Z,2.50
2023-04-04T07:12:19.714Z,2.63
2023-04-04T07:17:41.836Z,1.73
2023-04-04T07:23:04.182Z,1.50
2023-04-04T07:28:26.493Z,1.70
2023-04-04T07:33:48.779Z,1.60
2023-04-04T07:39:11.063Z,1.60
2023-04-04T07:44:33.341Z,1.33
2023-04-04T07:49:55.424Z,1.90
2023-04-04T07:55:19.618Z,1.80
2023-04-04T08:00:42.072Z,1.43
2023-04-04T08:06:04.690Z,1.50
2023-04-04T08:11:27.455Z,1.10
2023-04-04T08:16:49.996Z,1.90
2023-04-04T08:22:12.536Z,1.40
2023-04-04T08:27:35.146Z,1.20
2023-04-04T08:32:57.601Z,0.83
2023-04-04T08:38:20.177Z,1.10
2023-04-04T08:43:46.615Z,1.37
2023-04-04T08:49:10.579Z,1.60
2023-04-04T08:54:35.046Z,1.30
2023-04-04T08:59:59.877Z,1.30
2023-04-04T09:05:22.509Z,1.30
2023-04-04T09:10:46.188Z,1.07
2023-04-04T09:16:08.726Z,1.20
2023-04-04T09:21:33.939Z,1.30
2023-04-04T09:26:58.216Z,1.27
2023-04-04T09:32:23.134Z,1.10
2023-04-04T09:37:46.215Z,1.00
2023-04-04T09:43:09.580Z,1.60
2023-04-04T09:48:34.699Z,1.17
2023-04-04T09:53:58.796Z,1.27
2023-04-04T09:59:21.583Z,1.27
2023-04-04T10:04:45.739Z,1.20
2023-04-04T10:10:10.447Z,1.20
2023-04-04T10:15:38.733Z,1.40
2023-04-04T10:26:31.559Z,1.13
2023-04-04T10:32:02.553Z,1.40
2023-04-04T10:37:32.088Z,1.97
2023-04-04T10:42:57.699Z,2.00
2023-04-04T10:48:20.717Z,1.73
2023-04-04T10:53:43.811Z,1.63
2023-04-04T10:59:12.156Z,1.20
2023-04-04T11:04:38.485Z,1.13
2023-04-04T11:10:01.368Z,1.40
2023-04-04T11:15:27.474Z,0.97
2023-04-04T11:20:50.038Z,1.13
2023-04-04T11:26:12.430Z,1.50
2023-04-04T11:31:38.058Z,1.17
2023-04-04T11:37:17.813Z,1.10
2023-04-04T11:42:41.978Z,1.07
2023-04-04T11:48:06.741Z,1.23
2023-04-04T11:53:31.805Z,1.73
2023-04-04T11:59:01.582Z,2.00
2023-04-04T12:04:28.756Z,1.40
2023-04-04T12:09:52.351Z,1.20
2023-04-04T12:15:17.749Z,1.17
2023-04-04T12:20:41.641Z,1.10
2023-04-04T12:26:06.070Z,1.13
2023-04-04T12:31:29.705Z,1.00
2023-04-04T12:36:52.963Z,1.47
2023-04-04T12:42:22.873Z,1.40
2023-04-04T12:47:55.797Z,1.10
2023-04-04T12:53:28.950Z,1.13
2023-04-04T12:58:52.966Z,0.87
2023-04-04T13:04:17.799Z,1.00
2023-04-04T13:10:00.873Z,1.40
2023-04-04T13:15:23.874Z,0.80
2023-04-04T13:20:46.161Z,1.63
2023-04-04T13:26:10.808Z,1.10
2023-04-04T13:31:33.202Z,1.10
2023-04-04T13:36:56.538Z,1.20
2023-04-04T13:42:19.179Z,1.30
2023-04-04T13:47:41.588Z,0.90
2023-04-04T13:53:04.332Z,1.33
2023-04-04T13:58:26.543Z,1.10
2023-04-04T14:03:49.099Z,1.13
2023-04-04T14:09:11.386Z,1.33
2023-04-04T14:14:37.936Z,1.10
2023-04-04T14:20:00.701Z,2.10
2023-04-04T14:25:23.084Z,1.40
2023-04-04T14:30:45.652Z,1.60
2023-04-04T14:36:09.774Z,1.40
2023-04-04T14:41:32.690Z,1.43
2023-04-04T14:46:55.229Z,1.30
2023-04-04T14:52:17.736Z,1.13
2023-04-04T14:57:57.180Z,4.50
2023-04-04T15:03:22.542Z,2.10
2023-04-04T15:08:44.500Z,1.70
2023-04-04T15:14:06.912Z,1.23
2023-04-04T15:19:29.295Z,1.10
2023-04-04T15:24:51.963Z,1.40
2023-04-04T15:30:17.150Z,1.40
2023-04-04T15:35:39.454Z,1.83
2023-04-04T15:41:01.928Z,1.60
2023-04-04T15:46:28.513Z,1.60
2023-04-04T15:51:51.046Z,1.10
2023-04-04T15:57:13.316Z,1.43
2023-04-04T16:02:35.979Z,1.03
2023-04-04T16:07:58.363Z,1.53
2023-04-04T16:13:20.577Z,1.40
2023-04-04T16:18:43.049Z,1.33
2023-04-04T16:24:06.331Z,1.53
2023-04-04T16:29:31.223Z,1.63
2023-04-04T16:34:53.524Z,1.57
2023-04-04T16:40:15.988Z,1.47
2023-04-04T16:45:38.363Z,1.57
2023-04-04T16:51:02.379Z,1.40
2023-04-04T16:56:25.322Z,1.40
2023-04-04T17:01:49.134Z,2.20
2023-04-04T17:07:11.609Z,1.87
2023-04-04T17:12:35.036Z,1.77
2023-04-04T17:17:58.236Z,2.00
2023-04-04T17:23:21.257Z,1.70
2023-04-04T17:28:44.106Z,2.00
2023-04-04T17:34:06.777Z,3.80
2023-04-04T17:39:30.047Z,2.70
2023-04-04T17:44:52.665Z,2.47
2023-04-04T17:50:16.605Z,2.80
2023-04-04T17:55:40.831Z,2.50
2023-04-04T18:01:04.694Z,2.40
2023-04-04T18:06:27.297Z,2.10
2023-04-04T18:11:49.848Z,2.67
2023-04-04T18:17:12.794Z,2.80
2023-04-04T18:22:35.402Z,2.73
2023-04-04T18:27:57.784Z,3.47
2023-04-04T18:33:20.268Z,3.13
2023-04-04T18:38:42.458Z,3.37
2023-04-04T18:44:04.697Z,3.40
2023-04-04T18:49:27.301Z,3.40
2023-04-04T18:54:50.497Z,3.30
2023-04-04T19:00:13.697Z,3.87
2023-04-04T19:05:38.366Z,3.97
2023-04-04T19:11:00.917Z,4.07
2023-04-04T19:16:24.223Z,3.70
2023-04-04T19:21:46.750Z,3.60
2023-04-04T19:27:09.452Z,4.00
2023-04-04T19:32:31.705Z,4.20
2023-04-04T19:37:54.072Z,5.03
2023-04-04T19:43:21.392Z,6.07
2023-04-04T19:48:49.394Z,5.53
2023-04-04T19:54:15.074Z,7.47
2023-04-04T20:00:01.878Z,6.97
2023-04-04T20:05:32.232Z,5.97
2023-04-04T20:10:56.287Z,7.77
2023-04-04T20:16:18.576Z,7.73
2023-04-04T20:21:41.133Z,7.60
2023-04-04T20:27:06.006Z,7.60
2023-04-04T20:32:28.215Z,8.20
2023-04-04T20:37:50.311Z,7.73
2023-04-04T20:43:12.467Z,6.87
2023-04-04T20:48:40.198Z,6.30
2023-04-04T20:54:03.504Z,6.47
2023-04-04T20:59:37.507Z,9.87
2023-04-04T21:05:00.016Z,8.47
2023-04-04T21:10:26.861Z,6.77
2023-04-04T21:15:49.251Z,8.10
2023-04-04T21:21:19.030Z,6.90
2023-04-04T21:26:42.054Z,7.87
2023-04-04T21:32:08.072Z,6.47
2023-04-04T21:37:30.590Z,7.43
2023-04-04T21:42:53.094Z,6.77
2023-04-04T21:48:17.449Z,7.70
2023-04-04T21:53:39.864Z,7.63
2023-04-04T21:59:04.274Z,7.27
2023-04-04T22:04:26.872Z,7.27
2023-04-04T22:09:52.950Z,6.63
2023-04-04T22:15:19.113Z,5.83
2023-04-04T22:20:42.979Z,5.70
2023-04-04T22:26:07.329Z,6.27
2023-04-04T22:31:29.629Z,5.33
2023-04-04T22:36:54.847Z,5.93
2023-04-04T22:42:18.437Z,6.27
2023-04-04T22:47:47.260Z,5.17
2023-04-04T22:53:13.006Z,5.30
2023-04-04T22:58:35.306Z,5.73
2023-04-04T23:03:57.515Z,5.47
2023-04-04T23:09:19.769Z,6.07
2023-04-04T23:14:42.232Z,5.13
2023-04-04T23:20:07.916Z,4.67
2023-04-04T23:25:30.167Z,4.93
2023-04-04T23:30:52.754Z,5.67
2023-04-04T23:36:18.229Z,4.43
2023-04-04T23:41:40.519Z,4.90
2023-04-04T23:47:02.968Z,5.73
2023-04-04T23:52:25.406Z,5.23
2023-04-04T23:57:47.989Z,4.43
